Park Forest, Illinois
Current Conditions -  °F | °C
As of 2:55 PM on Sunday 21 Dec 2014 (Local Time) from KIGQ Reporting Station
Overcast Overcast  
Wind Chill: 28°   Ceiling: 3600
Heat Index: 36°   Visibility: 10mi
Dew Point: 29°   Wind: 10mph
Humidity: 76%   Direction: 170°S
Pressure: 30.12"   Gusts: NA
Location:  41.48°N, 87.68°W
Report Text: KIGQ 212055Z AUTO 17009KT 10SM OVC036 02/M02 A3012 RMK AO2 T00221016
Loading
Personal Weather Stations






























Interactive Weather Map New forecast layout! Learn more

10-Day Weather Forecast

Advertisements
Track Severe Weather on mobile